createdAt,value
2022-09-28T00:01:25.509Z,7.63
2022-09-28T00:03:54.505Z,7.55
2022-09-28T00:06:26.862Z,7.57
2022-09-28T00:08:53.900Z,7.57
2022-09-28T00:11:22.073Z,7.50
2022-09-28T00:13:51.642Z,7.49
2022-09-28T00:16:20.801Z,7.48
2022-09-28T00:18:47.425Z,7.49
2022-09-28T00:21:16.536Z,7.43
2022-09-28T00:24:02.666Z,7.37
2022-09-28T00:26:31.301Z,7.40
2022-09-28T00:29:00.479Z,7.39
2022-09-28T00:31:32.798Z,7.35
2022-09-28T00:34:01.312Z,7.32
2022-09-28T00:36:30.023Z,7.36
2022-09-28T00:38:58.073Z,7.37
2022-09-28T00:41:27.186Z,7.38
2022-09-28T00:43:54.652Z,7.41
2022-09-28T00:46:31.401Z,7.36
2022-09-28T00:49:03.272Z,7.29
2022-09-28T00:51:31.840Z,7.22
2022-09-28T00:54:01.304Z,7.28
2022-09-28T00:56:32.439Z,7.27
2022-09-28T00:58:59.909Z,7.24
2022-09-28T01:01:27.632Z,7.26
2022-09-28T01:03:54.801Z,7.25
2022-09-28T01:06:23.620Z,7.32
2022-09-28T01:08:52.936Z,7.28
2022-09-28T01:11:19.763Z,7.27
2022-09-28T01:13:48.649Z,7.35
2022-09-28T01:16:35.581Z,7.39
2022-09-28T01:19:14.375Z,7.43
2022-09-28T01:22:22.331Z,7.39
2022-09-28T01:24:58.448Z,7.35
2022-09-28T01:27:39.460Z,7.37
2022-09-28T01:30:15.857Z,7.31
2022-09-28T01:32:52.139Z,7.37
2022-09-28T01:35:25.258Z,7.37
2022-09-28T01:38:14.413Z,7.46
2022-09-28T01:40:41.897Z,7.37
2022-09-28T01:43:14.638Z,7.36
2022-09-28T01:45:51.586Z,7.30
2022-09-28T01:48:30.144Z,7.32
2022-09-28T01:51:00.652Z,7.24
2022-09-28T01:53:35.751Z,7.13
2022-09-28T01:56:10.729Z,7.11
2022-09-28T01:58:46.414Z,7.14
2022-09-28T02:01:22.482Z,7.11
2022-09-28T02:03:59.009Z,7.08
2022-09-28T02:06:36.482Z,7.13
2022-09-28T02:09:13.104Z,7.09
2022-09-28T02:11:47.350Z,7.16
2022-09-28T02:14:17.610Z,7.11
2022-09-28T02:16:47.270Z,6.98
2022-09-28T02:19:19.082Z,6.94
2022-09-28T02:22:00.369Z,6.98
2022-09-28T02:24:57.243Z,6.98
2022-09-28T02:27:34.315Z,6.93
2022-09-28T02:30:02.194Z,6.95
2022-09-28T02:32:30.897Z,6.91
2022-09-28T02:34:57.368Z,6.90
2022-09-28T02:37:23.948Z,7.05
2022-09-28T02:39:50.403Z,7.00
2022-09-28T02:42:24.069Z,6.97
2022-09-28T02:45:25.903Z,6.89
2022-09-28T02:48:19.155Z,6.98
2022-09-28T02:50:59.377Z,6.98
2022-09-28T02:53:31.927Z,6.98
2022-09-28T02:56:20.382Z,7.07
2022-09-28T02:59:11.503Z,7.09
2022-09-28T03:01:52.800Z,7.13
2022-09-28T03:04:27.853Z,7.07
2022-09-28T03:07:19.908Z,7.03
2022-09-28T03:09:56.462Z,7.03
2022-09-28T03:12:24.711Z,7.09
2022-09-28T03:15:19.127Z,6.98
2022-09-28T03:17:46.018Z,6.92
2022-09-28T03:20:12.641Z,6.89
2022-09-28T03:22:39.270Z,6.93
2022-09-28T03:25:07.366Z,6.96
2022-09-28T03:27:34.056Z,7.09
2022-09-28T03:30:00.681Z,6.98
2022-09-28T03:32:27.441Z,6.93
2022-09-28T03:34:54.364Z,7.07
2022-09-28T03:37:20.817Z,7.01
2022-09-28T03:39:48.551Z,7.07
2022-09-28T03:42:15.040Z,7.03
2022-09-28T03:44:41.511Z,7.06
2022-09-28T03:47:08.978Z,7.12
2022-09-28T03:49:35.473Z,7.06
2022-09-28T03:52:02.243Z,7.11
2022-09-28T03:54:28.782Z,7.00
2022-09-28T03:56:55.551Z,6.95
2022-09-28T03:59:22.016Z,6.93
2022-09-28T04:01:52.453Z,6.97
2022-09-28T04:04:19.034Z,7.03
2022-09-28T04:06:45.774Z,7.04
2022-09-28T04:09:12.308Z,7.03
2022-09-28T04:11:59.706Z,7.05
2022-09-28T04:14:25.305Z,7.08
2022-09-28T04:16:54.863Z,7.03
2022-09-28T04:19:22.187Z,6.95
2022-09-28T04:21:51.031Z,6.76
2022-09-28T04:24:18.288Z,6.66
2022-09-28T04:26:44.818Z,6.52
2022-09-28T04:29:17.779Z,6.48
2022-09-28T04:31:46.081Z,6.44
2022-09-28T04:34:17.080Z,6.40
2022-09-28T04:36:47.278Z,6.36
2022-09-28T04:39:15.375Z,6.60
2022-09-28T04:41:42.763Z,6.58
2022-09-28T04:44:09.957Z,6.56
2022-09-28T04:46:36.512Z,6.53
2022-09-28T04:49:03.358Z,6.60
2022-09-28T04:51:32.788Z,6.70
2022-09-28T04:53:59.476Z,6.67
2022-09-28T04:56:26.019Z,6.83
2022-09-28T04:58:52.953Z,6.95
2022-09-28T05:01:21.017Z,6.90
2022-09-28T05:03:47.624Z,6.96
2022-09-28T05:06:15.804Z,7.00
2022-09-28T05:08:43.004Z,6.94
2022-09-28T05:11:12.104Z,6.99
2022-09-28T05:13:43.748Z,7.08
2022-09-28T05:16:11.147Z,7.18
2022-09-28T05:18:37.834Z,7.23
2022-09-28T05:21:08.934Z,7.22
2022-09-28T05:23:35.416Z,7.30
2022-09-28T05:26:02.602Z,7.18
2022-09-28T05:28:31.257Z,7.03
2022-09-28T05:31:02.172Z,7.13
2022-09-28T05:33:31.003Z,7.10
2022-09-28T05:36:01.371Z,7.09
2022-09-28T05:38:29.790Z,7.14
2022-09-28T05:40:56.577Z,7.22
2022-09-28T05:43:23.077Z,7.29
2022-09-28T05:45:55.078Z,7.33
2022-09-28T05:48:22.623Z,7.36
2022-09-28T05:50:52.750Z,7.31
2022-09-28T05:53:19.507Z,7.87
2022-09-28T05:55:46.247Z,9.06
2022-09-28T05:58:12.970Z,8.39
2022-09-28T06:00:39.625Z,8.13
2022-09-28T06:03:09.578Z,7.88
2022-09-28T06:05:36.841Z,8.00
2022-09-28T06:08:05.448Z,7.87
2022-09-28T06:10:32.881Z,7.83
2022-09-28T06:13:00.500Z,7.87
2022-09-28T06:15:30.488Z,7.94
2022-09-28T06:18:05.789Z,8.03
2022-09-28T06:20:35.169Z,8.38
2022-09-28T06:23:01.678Z,8.30
2022-09-28T06:25:28.140Z,8.38
2022-09-28T06:27:58.695Z,8.42
2022-09-28T06:30:27.244Z,8.56
2022-09-28T06:32:55.346Z,8.53
2022-09-28T06:35:23.651Z,8.52
2022-09-28T06:37:50.202Z,8.57
2022-09-28T06:40:17.721Z,8.79
2022-09-28T06:42:44.410Z,8.75
2022-09-28T06:45:11.360Z,8.84
2022-09-28T06:47:38.140Z,8.81
2022-09-28T06:50:14.454Z,8.89
2022-09-28T06:52:40.970Z,8.87
2022-09-28T06:55:07.794Z,8.85
2022-09-28T06:57:34.343Z,8.92
2022-09-28T07:00:01.017Z,8.80
2022-09-28T07:02:27.500Z,9.01
2022-09-28T07:04:53.987Z,9.05
2022-09-28T07:07:20.501Z,9.22
2022-09-28T07:09:51.344Z,9.40
2022-09-28T07:12:19.938Z,9.16
2022-09-28T07:14:48.210Z,9.10
2022-09-28T07:17:15.257Z,9.12
2022-09-28T07:19:42.023Z,9.30
2022-09-28T07:22:08.494Z,9.33
2022-09-28T07:24:34.986Z,9.38
2022-09-28T07:27:05.062Z,9.22
2022-09-28T07:29:31.449Z,9.20
2022-09-28T07:31:57.955Z,9.26
2022-09-28T07:34:24.952Z,9.33
2022-09-28T07:36:57.155Z,9.31
2022-09-28T07:39:23.781Z,9.39
2022-09-28T07:41:50.352Z,9.69
2022-09-28T07:44:19.005Z,9.91
2022-09-28T07:46:46.574Z,10.00
2022-09-28T07:49:13.300Z,9.90
2022-09-28T07:51:40.556Z,9.85
2022-09-28T07:54:07.068Z,9.86
2022-09-28T07:56:34.845Z,9.65
2022-09-28T07:59:01.495Z,9.46
2022-09-28T08:01:30.520Z,9.41
2022-09-28T08:03:57.095Z,9.47
2022-09-28T08:06:23.641Z,9.49
2022-09-28T08:08:50.309Z,9.68
2022-09-28T08:11:18.737Z,9.72
2022-09-28T08:13:46.472Z,9.74
2022-09-28T08:16:13.267Z,9.89
2022-09-28T08:18:39.939Z,9.69
2022-09-28T08:21:24.936Z,9.66
2022-09-28T08:23:52.901Z,9.64
2022-09-28T08:26:19.509Z,9.61
2022-09-28T08:28:47.671Z,9.66
2022-09-28T08:31:14.256Z,9.55
2022-09-28T08:33:42.079Z,9.68
2022-09-28T08:36:10.250Z,9.81
2022-09-28T08:38:36.723Z,9.86
2022-09-28T08:41:21.789Z,9.95
2022-09-28T08:44:02.547Z,9.88
2022-09-28T08:46:40.664Z,9.71
2022-09-28T08:49:27.581Z,9.61
2022-09-28T08:52:29.853Z,9.44
2022-09-28T08:55:11.200Z,9.48
2022-09-28T08:57:48.140Z,9.33
2022-09-28T09:00:21.488Z,9.23
2022-09-28T09:02:48.721Z,9.26
2022-09-28T09:05:19.999Z,9.22
2022-09-28T09:07:55.412Z,9.23
2022-09-28T09:10:30.085Z,9.27
2022-09-28T09:13:14.148Z,9.25
2022-09-28T09:15:53.732Z,9.21
2022-09-28T09:18:22.366Z,9.15
2022-09-28T09:21:21.414Z,9.20
2022-09-28T09:24:05.037Z,9.42
2022-09-28T09:26:39.888Z,9.54
2022-09-28T09:29:13.657Z,9.76
2022-09-28T09:31:59.626Z,10.00
2022-09-28T09:34:51.163Z,9.98
2022-09-28T09:37:29.783Z,9.91
2022-09-28T09:40:26.365Z,9.75
2022-09-28T09:43:10.956Z,9.70
2022-09-28T09:45:43.439Z,9.62
2022-09-28T09:49:00.945Z,9.56
2022-09-28T09:51:36.185Z,9.72
2022-09-28T09:54:14.736Z,9.74
2022-09-28T09:56:49.036Z,9.76
2022-09-28T09:59:23.999Z,9.98
2022-09-28T10:01:52.329Z,9.94
2022-09-28T10:04:30.875Z,10.29
2022-09-28T10:07:05.466Z,10.53
2022-09-28T10:09:45.666Z,10.78
2022-09-28T10:12:19.049Z,10.94
2022-09-28T10:14:46.480Z,11.03
2022-09-28T10:17:17.932Z,11.20
2022-09-28T10:19:44.580Z,11.15
2022-09-28T10:22:18.012Z,11.33
2022-09-28T10:24:47.463Z,11.32
2022-09-28T10:27:17.300Z,11.46
2022-09-28T10:29:56.547Z,11.33
2022-09-28T10:32:26.003Z,11.47
2022-09-28T10:34:54.929Z,11.53
2022-09-28T10:37:21.615Z,11.36
2022-09-28T10:39:55.954Z,11.63
2022-09-28T10:42:31.493Z,11.83
2022-09-28T10:45:13.810Z,11.82
2022-09-28T10:47:44.690Z,11.69
2022-09-28T10:50:31.685Z,11.81
2022-09-28T10:53:12.351Z,11.74
2022-09-28T10:55:38.956Z,11.70
2022-09-28T10:58:26.081Z,11.78
2022-09-28T11:00:59.693Z,11.65
2022-09-28T11:03:28.695Z,11.51
2022-09-28T11:06:01.859Z,10.89
2022-09-28T11:08:33.252Z,10.69
2022-09-28T11:11:05.839Z,10.24
2022-09-28T11:13:39.651Z,10.23
2022-09-28T11:16:06.445Z,10.09
2022-09-28T11:18:34.379Z,9.99
2022-09-28T11:21:28.795Z,9.93
2022-09-28T11:24:21.532Z,9.77
2022-09-28T11:26:54.347Z,9.93
2022-09-28T11:29:36.284Z,9.82
2022-09-28T11:32:04.944Z,9.97
2022-09-28T11:34:58.615Z,10.08
2022-09-28T11:37:28.558Z,10.32
2022-09-28T11:40:26.269Z,10.39
2022-09-28T11:43:30.032Z,10.86
2022-09-28T11:46:42.433Z,10.91
2022-09-28T11:49:27.770Z,11.01
2022-09-28T11:51:57.588Z,11.08
2022-09-28T11:54:32.878Z,11.20
2022-09-28T11:57:03.611Z,11.04
2022-09-28T11:59:53.849Z,11.13
2022-09-28T12:02:26.044Z,10.83
2022-09-28T12:05:01.066Z,10.96
2022-09-28T12:07:34.463Z,10.82
2022-09-28T12:10:19.761Z,10.99
2022-09-28T12:13:03.757Z,11.15
2022-09-28T12:16:16.816Z,11.27
2022-09-28T12:18:50.719Z,11.40
2022-09-28T12:21:36.325Z,11.28
2022-09-28T12:24:24.148Z,11.62
2022-09-28T12:26:59.183Z,11.97
2022-09-28T12:29:40.859Z,12.58
2022-09-28T12:32:30.695Z,12.04
2022-09-28T12:34:57.891Z,12.08
2022-09-28T12:37:54.534Z,12.04
2022-09-28T12:40:47.833Z,12.40
2022-09-28T12:43:20.313Z,12.65
2022-09-28T12:46:13.965Z,12.80
2022-09-28T12:49:04.105Z,12.81
2022-09-28T12:51:59.918Z,12.98
2022-09-28T12:54:38.819Z,12.71
2022-09-28T12:57:05.265Z,13.06
2022-09-28T12:59:40.344Z,12.64
2022-09-28T13:02:36.993Z,12.72
2022-09-28T13:05:22.777Z,12.71
2022-09-28T13:07:53.890Z,12.84
2022-09-28T13:10:33.944Z,13.07
2022-09-28T13:13:15.590Z,12.81
2022-09-28T13:15:53.325Z,12.54
2022-09-28T13:18:39.025Z,12.61
2022-09-28T13:21:08.196Z,12.46
2022-09-28T13:23:41.040Z,12.30
2022-09-28T13:26:11.790Z,12.16
2022-09-28T13:28:39.603Z,12.15
2022-09-28T13:31:07.250Z,12.07
2022-09-28T13:33:38.939Z,12.14
2022-09-28T13:36:30.483Z,12.12
2022-09-28T13:38:59.478Z,12.02
2022-09-28T13:41:37.835Z,12.04
2022-09-28T13:44:21.000Z,12.07
2022-09-28T13:47:35.255Z,12.00
2022-09-28T13:50:39.162Z,12.08
2022-09-28T13:53:20.800Z,12.17
2022-09-28T13:55:47.231Z,11.93
2022-09-28T13:58:18.268Z,11.87
2022-09-28T14:00:53.669Z,11.85
2022-09-28T14:03:42.713Z,11.69
2022-09-28T14:06:23.635Z,11.62
2022-09-28T14:09:22.308Z,11.29
2022-09-28T14:12:02.969Z,11.27
2022-09-28T14:14:46.473Z,11.19
2022-09-28T14:17:21.881Z,10.93
2022-09-28T14:20:14.705Z,11.04
2022-09-28T14:23:20.951Z,10.80
2022-09-28T14:26:30.825Z,10.69
2022-09-28T14:29:21.044Z,10.53
2022-09-28T14:31:47.646Z,10.43
2022-09-28T14:35:01.548Z,10.39
2022-09-28T14:37:50.850Z,10.24
2022-09-28T14:40:43.798Z,10.22
2022-09-28T14:43:25.955Z,10.23
2022-09-28T14:46:14.424Z,10.21
2022-09-28T14:49:02.911Z,10.16
2022-09-28T14:51:33.865Z,10.18
2022-09-28T14:54:07.459Z,10.21
2022-09-28T14:56:44.429Z,10.24
2022-09-28T14:59:18.416Z,10.16
2022-09-28T15:01:55.562Z,10.12
2022-09-28T15:04:26.173Z,10.11
2022-09-28T15:06:55.820Z,10.12
2022-09-28T15:09:35.091Z,10.09
2022-09-28T15:12:15.086Z,9.98
2022-09-28T15:14:53.664Z,9.82
2022-09-28T15:17:23.586Z,9.76
2022-09-28T15:20:17.262Z,9.71
2022-09-28T15:22:48.864Z,9.67
2022-09-28T15:25:19.969Z,9.48
2022-09-28T15:27:52.584Z,9.53
2022-09-28T15:30:31.981Z,9.44
2022-09-28T15:33:19.019Z,9.37
2022-09-28T15:36:01.750Z,9.29
2022-09-28T15:38:30.029Z,9.21
2022-09-28T15:40:57.443Z,9.16
2022-09-28T15:43:34.814Z,9.15
2022-09-28T15:46:04.370Z,9.16
2022-09-28T15:48:40.771Z,9.05
2022-09-28T15:51:12.982Z,8.82
2022-09-28T15:54:01.040Z,8.77
2022-09-28T15:56:29.014Z,8.73
2022-09-28T15:59:10.632Z,8.69
2022-09-28T16:01:40.241Z,8.61
2022-09-28T16:04:36.311Z,8.66
2022-09-28T16:07:34.825Z,8.58
2022-09-28T16:10:11.837Z,8.59
2022-09-28T16:12:38.239Z,8.55
2022-09-28T16:15:06.962Z,8.45
2022-09-28T16:17:35.194Z,8.33
2022-09-28T16:20:24.264Z,8.32
2022-09-28T16:22:50.894Z,8.21
2022-09-28T16:25:24.507Z,8.14
2022-09-28T16:27:53.382Z,8.12
2022-09-28T16:30:24.384Z,8.12
2022-09-28T16:33:06.056Z,8.12
2022-09-28T16:35:50.855Z,8.01
2022-09-28T16:38:18.649Z,7.90
2022-09-28T16:40:49.508Z,7.86
2022-09-28T16:43:27.094Z,7.80
2022-09-28T16:45:58.561Z,7.79
2022-09-28T16:48:27.440Z,7.76
2022-09-28T16:50:54.175Z,7.74
2022-09-28T16:53:39.206Z,7.74
2022-09-28T16:56:06.716Z,7.83
2022-09-28T16:58:33.670Z,7.86
2022-09-28T17:01:00.936Z,7.80
2022-09-28T17:03:28.427Z,7.73
2022-09-28T17:05:55.499Z,7.75
2022-09-28T17:08:25.893Z,7.74
2022-09-28T17:11:24.043Z,7.72
2022-09-28T17:13:51.847Z,7.70
2022-09-28T17:16:37.089Z,7.64
2022-09-28T17:19:19.607Z,7.68
2022-09-28T17:21:46.972Z,7.66
2022-09-28T17:24:13.430Z,7.61
2022-09-28T17:26:43.817Z,7.64
2022-09-28T17:29:14.507Z,7.60
2022-09-28T17:31:42.917Z,7.56
2022-09-28T17:34:11.552Z,7.55
2022-09-28T17:36:38.476Z,7.55
2022-09-28T17:39:06.551Z,7.53
2022-09-28T17:41:34.221Z,7.54
2022-09-28T17:44:03.034Z,7.56
2022-09-28T17:46:32.202Z,7.56
2022-09-28T17:49:00.991Z,7.52
2022-09-28T17:51:33.120Z,7.45
2022-09-28T17:54:01.095Z,7.43
2022-09-28T17:56:32.194Z,7.48
2022-09-28T17:59:05.634Z,7.42
2022-09-28T18:01:35.981Z,7.38
2022-09-28T18:04:04.976Z,7.33
2022-09-28T18:06:33.773Z,7.42
2022-09-28T18:09:02.893Z,7.32
2022-09-28T18:11:29.973Z,7.37
2022-09-28T18:13:56.455Z,7.41
2022-09-28T18:16:23.349Z,7.45
2022-09-28T18:18:49.930Z,7.47
2022-09-28T18:21:16.503Z,7.45
2022-09-28T18:23:42.980Z,7.38
2022-09-28T18:26:14.061Z,7.36
2022-09-28T18:28:40.839Z,7.37
2022-09-28T18:31:12.651Z,7.36
2022-09-28T18:33:39.414Z,7.47
2022-09-28T18:36:07.465Z,7.46
2022-09-28T18:38:37.820Z,7.48
2022-09-28T18:41:15.761Z,7.57
2022-09-28T18:43:48.722Z,7.60
2022-09-28T18:46:15.539Z,7.60
2022-09-28T18:48:42.369Z,7.66
2022-09-28T18:51:10.270Z,7.65
2022-09-28T18:53:37.927Z,7.58
2022-09-28T18:56:09.495Z,7.62
2022-09-28T18:58:38.111Z,7.61
2022-09-28T19:01:29.371Z,7.64
2022-09-28T19:04:00.180Z,7.58
2022-09-28T19:06:26.983Z,7.58
2022-09-28T19:08:56.098Z,7.60
2022-09-28T19:11:23.257Z,7.58
2022-09-28T19:13:50.597Z,7.59
2022-09-28T19:16:20.886Z,7.59
2022-09-28T19:18:47.954Z,7.58
2022-09-28T19:21:15.849Z,7.61
2022-09-28T19:23:46.922Z,7.48
2022-09-28T19:26:20.704Z,7.45
2022-09-28T19:28:48.100Z,7.46
2022-09-28T19:31:14.614Z,7.47
2022-09-28T19:33:41.709Z,7.50
2022-09-28T19:36:10.703Z,7.51
2022-09-28T19:38:39.194Z,7.41
2022-09-28T19:41:55.255Z,7.48
2022-09-28T19:44:27.660Z,7.40
2022-09-28T19:47:09.897Z,7.36
2022-09-28T19:49:38.715Z,7.38
2022-09-28T19:52:13.266Z,7.37
2022-09-28T19:54:41.163Z,7.38
2022-09-28T19:57:08.461Z,7.38
2022-09-28T19:59:36.955Z,7.38
2022-09-28T20:02:05.324Z,7.34
2022-09-28T20:04:31.792Z,7.30
2022-09-28T20:06:58.260Z,7.29
2022-09-28T20:09:24.816Z,7.26
2022-09-28T20:11:51.888Z,7.27
2022-09-28T20:14:18.749Z,7.28
2022-09-28T20:16:48.721Z,7.27
2022-09-28T20:19:15.546Z,7.27
2022-09-28T20:21:42.024Z,7.26
2022-09-28T20:24:11.472Z,7.30
2022-09-28T20:26:37.977Z,7.33
2022-09-28T20:29:05.731Z,7.33
2022-09-28T20:31:32.313Z,7.24
2022-09-28T20:33:58.889Z,7.25
2022-09-28T20:36:26.574Z,7.28
2022-09-28T20:38:54.765Z,7.24
2022-09-28T20:41:22.989Z,7.25
2022-09-28T20:43:54.612Z,7.27
2022-09-28T20:46:22.123Z,7.20
2022-09-28T20:48:50.738Z,7.18
2022-09-28T20:51:20.974Z,7.16
2022-09-28T20:53:50.257Z,7.22
2022-09-28T20:56:24.272Z,7.16
2022-09-28T20:58:51.321Z,7.15
2022-09-28T21:01:26.013Z,7.09
2022-09-28T21:03:55.042Z,7.10
2022-09-28T21:06:32.901Z,6.96
2022-09-28T21:08:59.420Z,6.97
2022-09-28T21:11:27.904Z,6.97
2022-09-28T21:13:56.574Z,6.93
2022-09-28T21:16:23.121Z,6.93
2022-09-28T21:18:49.585Z,6.94
2022-09-28T21:21:18.505Z,6.91
2022-09-28T21:23:45.892Z,6.91
2022-09-28T21:26:24.790Z,6.82
2022-09-28T21:28:52.927Z,6.82
2022-09-28T21:31:21.845Z,6.93
2022-09-28T21:33:51.600Z,6.76
2022-09-28T21:36:18.336Z,6.80
2022-09-28T21:38:44.855Z,6.77
2022-09-28T21:41:11.346Z,6.80
2022-09-28T21:43:38.039Z,6.65
2022-09-28T21:46:04.676Z,6.65
2022-09-28T21:48:31.197Z,6.60
2022-09-28T21:50:59.773Z,6.55
2022-09-28T21:53:29.022Z,6.61
2022-09-28T21:55:56.647Z,6.58
2022-09-28T21:58:25.832Z,6.50
2022-09-28T22:01:05.156Z,6.50
2022-09-28T22:03:33.318Z,6.54
2022-09-28T22:05:59.822Z,6.47
2022-09-28T22:08:26.781Z,6.46
2022-09-28T22:11:06.555Z,6.45
2022-09-28T22:13:35.150Z,6.52
2022-09-28T22:16:02.547Z,6.46
2022-09-28T22:18:31.035Z,6.47
2022-09-28T22:21:08.990Z,6.44
2022-09-28T22:23:37.029Z,6.38
2022-09-28T22:26:13.087Z,6.32
2022-09-28T22:28:47.891Z,6.28
2022-09-28T22:31:15.252Z,6.31
2022-09-28T22:33:42.045Z,6.35
2022-09-28T22:36:08.473Z,6.34
2022-09-28T22:38:35.378Z,6.28
2022-09-28T22:41:04.980Z,6.33
2022-09-28T22:43:31.827Z,6.25
2022-09-28T22:46:06.066Z,6.31
2022-09-28T22:48:32.999Z,6.28
2022-09-28T22:50:59.559Z,6.40
2022-09-28T22:53:26.777Z,6.35
2022-09-28T22:55:53.306Z,6.26
2022-09-28T22:58:19.926Z,6.31
2022-09-28T23:00:46.364Z,6.32
2022-09-28T23:03:12.894Z,6.28
2022-09-28T23:05:39.359Z,6.30
2022-09-28T23:08:05.916Z,6.30
2022-09-28T23:10:32.661Z,6.29
2022-09-28T23:12:59.239Z,6.32
2022-09-28T23:15:26.169Z,6.28
2022-09-28T23:17:53.458Z,6.29
2022-09-28T23:20:23.742Z,6.29
2022-09-28T23:22:50.895Z,6.28
2022-09-28T23:25:18.228Z,6.27
2022-09-28T23:27:48.861Z,6.36
2022-09-28T23:30:18.589Z,6.28
2022-09-28T23:32:45.667Z,6.26
2022-09-28T23:35:14.101Z,6.26
2022-09-28T23:37:40.589Z,6.24
2022-09-28T23:40:07.475Z,6.23
2022-09-28T23:42:34.924Z,6.28
2022-09-28T23:45:01.731Z,6.23
2022-09-28T23:47:28.286Z,6.22
2022-09-28T23:49:54.755Z,6.26
2022-09-28T23:52:21.201Z,6.28
2022-09-28T23:54:47.689Z,6.23
2022-09-28T23:57:14.196Z,6.28
2022-09-28T23:59:40.671Z,6.16
